West Hartland, Connecticut
Current Conditions -  °F | °C
As of 3:51 AM on Wednesday 26 Nov 2014 (Local Time) from KBDL Reporting Station
Overcast Overcast  
Wind Chill: 39°   Ceiling: 15000
Heat Index: 43°   Visibility: 10mi
Dew Point: 28°   Wind: 7mph
Humidity: 56%   Direction: 330°NNW
Pressure: 30.21"   Gusts: NA
Location:  42°N, 72.97°W
Report Text: KBDL 260851Z 33006KT 10SM BKN150 OVC200 06/M02 A3021 RMK AO2 SLP230 T00611022 53021
Loading
Personal Weather Stations






























Interactive Weather Map New forecast layout! Learn more

10-Day Weather Forecast

Advertisements
Track Severe Weather on mobile